createdAt,value
2023-05-17T00:00:10.252Z,100011.55
2023-05-17T00:05:32.144Z,100013.66
2023-05-17T00:10:34.161Z,100017.24
2023-05-17T00:15:36.208Z,100011.20
2023-05-17T00:20:38.388Z,100010.94
2023-05-17T00:25:40.778Z,100016.97
2023-05-17T00:30:43.686Z,100014.88
2023-05-17T00:35:45.867Z,100014.77
2023-05-17T00:40:50.305Z,100003.27
2023-05-17T00:45:52.387Z,100005.72
2023-05-17T00:50:56.103Z,100010.93
2023-05-17T00:55:58.289Z,100008.79
2023-05-17T01:01:01.513Z,99999.82
2023-05-17T01:06:05.996Z,99994.66
2023-05-17T01:11:22.148Z,99993.95
2023-05-17T01:16:40.346Z,99988.75
2023-05-17T01:21:51.394Z,99988.73
2023-05-17T01:26:55.312Z,99992.00
2023-05-17T01:31:59.580Z,99997.02
2023-05-17T01:37:01.624Z,99984.97
2023-05-17T01:42:41.079Z,99979.58
2023-05-17T01:47:53.226Z,99984.06
2023-05-17T01:53:22.017Z,99981.67
2023-05-17T01:58:26.179Z,99977.45
2023-05-17T02:03:29.092Z,99963.26
2023-05-17T02:08:31.437Z,99958.52
2023-05-17T02:13:33.593Z,99969.52
2023-05-17T02:18:37.469Z,99975.27
2023-05-17T02:23:39.751Z,99980.87
2023-05-17T02:28:41.884Z,99974.37
2023-05-17T02:33:44.023Z,99964.46
2023-05-17T02:38:46.244Z,99961.35
2023-05-17T02:43:48.322Z,99968.40
2023-05-17T02:48:50.340Z,99971.11
2023-05-17T02:53:52.397Z,99972.06
2023-05-17T02:58:57.105Z,99976.36
2023-05-17T03:03:59.377Z,99978.39
2023-05-17T03:09:01.707Z,99987.73
2023-05-17T03:14:03.933Z,99979.61
2023-05-17T03:19:06.444Z,99985.92
2023-05-17T03:24:09.032Z,99986.77
2023-05-17T03:29:11.615Z,99989.95
2023-05-17T03:34:13.896Z,99994.25
2023-05-17T03:39:16.083Z,99999.70
2023-05-17T03:44:18.162Z,100007.82
2023-05-17T03:49:20.660Z,100014.34
2023-05-17T03:54:22.854Z,100013.65
2023-05-17T03:59:25.129Z,100019.45
2023-05-17T04:04:27.427Z,100016.52
2023-05-17T04:09:31.738Z,100019.85
2023-05-17T04:14:33.747Z,100019.84
2023-05-17T04:19:36.086Z,100028.63
2023-05-17T04:24:38.307Z,100031.91
2023-05-17T04:29:40.945Z,100031.94
2023-05-17T04:34:43.086Z,100036.48
2023-05-17T04:39:45.180Z,100046.58
2023-05-17T04:44:47.248Z,100045.98
2023-05-17T04:49:51.173Z,100042.89
2023-05-17T04:54:53.459Z,100037.15
2023-05-17T04:59:55.655Z,100037.25
2023-05-17T05:04:58.073Z,100052.31
2023-05-17T05:10:02.517Z,100051.51
2023-05-17T05:15:05.935Z,100054.76
2023-05-17T05:20:09.673Z,100053.22
2023-05-17T05:25:11.886Z,100059.88
2023-05-17T05:30:21.549Z,100054.82
2023-05-17T05:35:30.193Z,100043.58
2023-05-17T05:40:33.216Z,100045.55
2023-05-17T05:45:35.583Z,100057.41
2023-05-17T05:50:38.377Z,100070.63
2023-05-17T05:55:42.115Z,100077.20
2023-05-17T06:00:44.382Z,100074.23
2023-05-17T06:05:46.616Z,100078.91
2023-05-17T06:10:48.958Z,100088.42
2023-05-17T06:15:51.159Z,100097.36
2023-05-17T06:20:53.582Z,100103.80
2023-05-17T06:25:55.932Z,100104.70
2023-05-17T06:30:58.523Z,100107.59
2023-05-17T06:41:07.797Z,100116.19
2023-05-17T06:46:09.992Z,100117.45
2023-05-17T06:51:12.371Z,100106.28
2023-05-17T06:56:15.574Z,100098.42
2023-05-17T07:01:18.477Z,100101.17
2023-05-17T07:06:20.973Z,100103.96
2023-05-17T07:11:23.154Z,100113.80
2023-05-17T07:16:25.335Z,100100.58
2023-05-17T07:21:28.043Z,100105.46
2023-05-17T07:26:30.632Z,100122.13
2023-05-17T07:31:32.921Z,100133.36
2023-05-17T07:36:35.242Z,100141.85
2023-05-17T07:41:37.600Z,100149.45
2023-05-17T07:46:39.814Z,100152.69
2023-05-17T07:51:42.065Z,100159.37
2023-05-17T07:56:44.251Z,100168.70
2023-05-17T08:01:46.451Z,100171.55
2023-05-17T08:06:49.751Z,100183.02
2023-05-17T08:11:51.934Z,100190.08
2023-05-17T08:16:54.118Z,100190.98
2023-05-17T08:21:56.707Z,100187.21
2023-05-17T08:26:58.994Z,100179.70
2023-05-17T08:32:04.047Z,100182.25
2023-05-17T08:37:06.313Z,100179.23
2023-05-17T08:42:08.730Z,100177.08
2023-05-17T08:47:12.139Z,100179.52
2023-05-17T08:52:15.342Z,100181.73
2023-05-17T08:57:49.883Z,100184.34
2023-05-17T09:02:52.136Z,100188.84
2023-05-17T09:07:56.094Z,100191.36
2023-05-17T09:12:58.176Z,100189.66
2023-05-17T09:18:00.552Z,100186.89
2023-05-17T09:23:04.181Z,100202.12
2023-05-17T09:28:11.181Z,100212.16
2023-05-17T09:33:15.267Z,100217.73
2023-05-17T09:38:28.366Z,100215.33
2023-05-17T09:43:30.660Z,100210.73
2023-05-17T09:48:32.999Z,100215.15
2023-05-17T09:53:40.335Z,100209.34
2023-05-17T09:58:42.520Z,100204.92
2023-05-17T10:03:45.347Z,100208.91
2023-05-17T10:08:53.965Z,100203.09
2023-05-17T10:14:22.157Z,100207.17
2023-05-17T10:19:25.795Z,100202.15
2023-05-17T10:24:30.390Z,100194.02
2023-05-17T10:29:34.335Z,100192.86
2023-05-17T10:34:38.880Z,100185.67
2023-05-17T10:39:43.310Z,100182.33
2023-05-17T10:44:45.907Z,100189.04
2023-05-17T10:49:51.158Z,100199.81
2023-05-17T10:54:55.171Z,100203.92
2023-05-17T11:00:00.365Z,100211.08
2023-05-17T11:05:02.726Z,100211.82
2023-05-17T11:10:11.161Z,100216.71
2023-05-17T11:15:15.580Z,100216.69
2023-05-17T11:20:23.900Z,100225.55
2023-05-17T11:25:32.190Z,100221.00
2023-05-17T11:30:34.514Z,100228.89
2023-05-17T11:35:39.048Z,100226.01
2023-05-17T11:40:42.042Z,100223.05
2023-05-17T11:45:53.268Z,100223.64
2023-05-17T11:50:56.799Z,100232.95
2023-05-17T11:56:05.452Z,100231.77
2023-05-17T12:01:08.697Z,100227.73
2023-05-17T12:06:14.966Z,100240.91
2023-05-17T12:11:21.196Z,100245.09
2023-05-17T12:16:24.307Z,100249.57
2023-05-17T12:21:26.498Z,100254.69
2023-05-17T12:26:28.629Z,100255.36
2023-05-17T12:31:42.036Z,100262.23
2023-05-17T12:36:45.228Z,100269.25
2023-05-17T12:41:47.716Z,100269.40
2023-05-17T12:46:55.741Z,100278.66
2023-05-17T12:52:04.360Z,100285.30
2023-05-17T12:57:15.419Z,100286.95
2023-05-17T13:02:19.725Z,100294.41
2023-05-17T13:07:24.780Z,100297.33
2023-05-17T13:12:27.043Z,100299.31
2023-05-17T13:17:40.138Z,100305.30
2023-05-17T13:22:46.733Z,100301.40
2023-05-17T13:27:48.965Z,100307.88
2023-05-17T13:32:51.264Z,100309.51
2023-05-17T13:37:53.538Z,100312.46
2023-05-17T13:42:56.045Z,100328.19
2023-05-17T13:47:59.192Z,100325.61
2023-05-17T13:53:02.620Z,100332.12
2023-05-17T13:58:05.342Z,100328.61
2023-05-17T14:03:07.731Z,100340.95
2023-05-17T14:08:10.048Z,100342.08
2023-05-17T14:13:12.814Z,100332.73
2023-05-17T14:18:15.409Z,100343.88
2023-05-17T14:23:18.412Z,100347.11
2023-05-17T14:28:20.450Z,100352.73
2023-05-17T14:33:22.700Z,100351.73
2023-05-17T14:38:25.219Z,100356.71
2023-05-17T14:43:27.648Z,100362.48
2023-05-17T14:48:30.778Z,100373.26
2023-05-17T14:53:32.959Z,100380.77
2023-05-17T14:58:35.346Z,100387.49
2023-05-17T15:03:37.564Z,100400.50
2023-05-17T15:08:40.233Z,100408.89
2023-05-17T15:13:42.304Z,100405.00
2023-05-17T15:18:44.346Z,100401.42
2023-05-17T15:23:47.503Z,100407.61
2023-05-17T15:28:50.732Z,100408.44
2023-05-17T15:33:52.735Z,100412.66
2023-05-17T15:38:54.849Z,100415.70
2023-05-17T15:43:57.767Z,100426.96
2023-05-17T15:49:00.133Z,100432.05
2023-05-17T15:54:02.266Z,100434.63
2023-05-17T15:59:05.196Z,100438.16
2023-05-17T16:04:07.555Z,100457.63
2023-05-17T16:09:09.720Z,100465.84
2023-05-17T16:14:11.893Z,100479.75
2023-05-17T16:19:14.207Z,100489.73
2023-05-17T16:24:17.079Z,100502.14
2023-05-17T16:29:19.369Z,100504.24
2023-05-17T16:34:21.590Z,100509.65
2023-05-17T16:39:26.705Z,100515.95
2023-05-17T16:44:28.894Z,100525.19
2023-05-17T16:49:31.080Z,100540.45
2023-05-17T16:54:35.013Z,100549.02
2023-05-17T16:59:37.657Z,100556.37
2023-05-17T17:04:40.188Z,100555.28
2023-05-17T17:09:42.472Z,100565.90
2023-05-17T17:14:44.607Z,100573.66
2023-05-17T17:19:47.156Z,100578.60
2023-05-17T17:24:49.440Z,100581.93
2023-05-17T17:29:51.824Z,100586.58
2023-05-17T17:34:53.911Z,100588.27
2023-05-17T17:39:56.347Z,100602.42
2023-05-17T17:44:58.330Z,100597.81
2023-05-17T17:50:00.667Z,100599.12
2023-05-17T17:55:02.955Z,100608.85
2023-05-17T18:00:06.117Z,100614.36
2023-05-17T18:05:09.136Z,100622.13
2023-05-17T18:10:11.355Z,100614.33
2023-05-17T18:15:13.505Z,100622.30
2023-05-17T18:20:15.477Z,100621.79
2023-05-17T18:25:17.810Z,100626.04
2023-05-17T18:30:20.294Z,100636.52
2023-05-17T18:35:22.528Z,100650.86
2023-05-17T18:47:23.696Z,100668.98
2023-05-17T18:52:25.973Z,100670.42
2023-05-17T18:57:29.446Z,100675.15
2023-05-17T19:02:31.681Z,100685.02
2023-05-17T19:07:34.058Z,100685.91
2023-05-17T19:12:36.040Z,100688.90
2023-05-17T19:17:38.298Z,100692.02
2023-05-17T19:22:40.627Z,100689.95
2023-05-17T19:27:42.706Z,100685.98
2023-05-17T19:32:44.715Z,100681.17
2023-05-17T19:37:46.962Z,100682.14
2023-05-17T19:42:49.251Z,100686.74
2023-05-17T19:47:53.045Z,100694.02
2023-05-17T19:52:55.208Z,100692.83
2023-05-17T19:57:57.546Z,100697.70
2023-05-17T20:02:59.835Z,100700.45
2023-05-17T20:08:02.222Z,100701.46
2023-05-17T20:13:04.296Z,100706.00
2023-05-17T20:18:08.519Z,100700.06
2023-05-17T20:23:12.921Z,100709.38
2023-05-17T20:28:14.839Z,100709.71
2023-05-17T20:38:51.475Z,100721.11
2023-05-17T20:43:54.369Z,100717.98
2023-05-17T20:48:57.680Z,100722.36
2023-05-17T20:54:00.640Z,100722.91
2023-05-17T20:59:03.603Z,100726.64
2023-05-17T21:04:06.171Z,100727.84
2023-05-17T21:09:08.774Z,100729.30
2023-05-17T21:14:10.915Z,100735.42
2023-05-17T21:19:14.090Z,100731.56
2023-05-17T21:24:16.252Z,100730.89
2023-05-17T21:29:18.533Z,100739.70
2023-05-17T21:34:20.820Z,100742.08
2023-05-17T21:39:23.013Z,100748.56
2023-05-17T21:44:25.194Z,100756.98
2023-05-17T21:49:28.195Z,100753.11
2023-05-17T21:54:30.480Z,100746.83
2023-05-17T21:59:33.689Z,100743.34
2023-05-17T22:04:36.191Z,100735.98
2023-05-17T22:09:38.374Z,100734.23
2023-05-17T22:14:43.006Z,100743.11
2023-05-17T22:19:45.401Z,100740.88
2023-05-17T22:24:53.336Z,100734.63
2023-05-17T22:29:55.705Z,100732.61
2023-05-17T22:34:57.992Z,100737.45
2023-05-17T22:40:00.407Z,100737.17
2023-05-17T22:45:03.282Z,100734.46
2023-05-17T22:50:06.595Z,100734.92
2023-05-17T22:55:10.132Z,100739.40
2023-05-17T23:00:13.220Z,100746.08
2023-05-17T23:05:15.518Z,100743.48
2023-05-17T23:10:17.686Z,100747.11
2023-05-17T23:15:20.491Z,100755.27
2023-05-17T23:20:24.583Z,100775.84
2023-05-17T23:25:29.870Z,100778.39
2023-05-17T23:30:32.666Z,100790.13
2023-05-17T23:35:34.853Z,100791.64
2023-05-17T23:40:37.052Z,100791.63
2023-05-17T23:45:39.224Z,100802.46
2023-05-17T23:50:41.408Z,100809.75
2023-05-17T23:55:43.688Z,100811.61
